sensor_id;sensor_type;location;lat;lon;timestamp;temperature;humidity
8463;DHT22;4268;52.506;13.462;2022-11-10T00:01:50;11.90;99.90
8463;DHT22;4268;52.506;13.462;2022-11-10T00:04:15;11.90;99.90
8463;DHT22;4268;52.506;13.462;2022-11-10T00:06:41;11.90;99.90
8463;DHT22;4268;52.506;13.462;2022-11-10T00:09:06;11.90;99.90
8463;DHT22;4268;52.506;13.462;2022-11-10T00:11:32;11.90;99.90
8463;DHT22;4268;52.506;13.462;2022-11-10T00:13:58;12.00;99.90
8463;DHT22;4268;52.506;13.462;2022-11-10T00:16:42;12.00;99.90
8463;DHT22;4268;52.506;13.462;2022-11-10T00:19:29;12.00;99.90
8463;DHT22;4268;52.506;13.462;2022-11-10T00:21:55;11.90;99.90
8463;DHT22;4268;52.506;13.462;2022-11-10T00:24:21;12.00;99.90
8463;DHT22;4268;52.506;13.462;2022-11-10T00:26:47;12.00;99.90
8463;DHT22;4268;52.506;13.462;2022-11-10T00:29:12;12.00;99.90
8463;DHT22;4268;52.506;13.462;2022-11-10T00:31:38;12.00;99.90
8463;DHT22;4268;52.506;13.462;2022-11-10T00:34:04;12.00;99.90
8463;DHT22;4268;52.506;13.462;2022-11-10T00:36:30;12.10;99.90
8463;DHT22;4268;52.506;13.462;2022-11-10T00:38:55;12.10;99.90
8463;DHT22;4268;52.506;13.462;2022-11-10T00:41:21;12.10;99.90
8463;DHT22;4268;52.506;13.462;2022-11-10T00:43:47;12.20;99.90
8463;DHT22;4268;52.506;13.462;2022-11-10T00:46:13;12.20;99.90
8463;DHT22;4268;52.506;13.462;2022-11-10T00:48:39;12.30;99.90
8463;DHT22;4268;52.506;13.462;2022-11-10T00:51:05;12.30;99.90
8463;DHT22;4268;52.506;13.462;2022-11-10T00:53:30;12.30;99.90
8463;DHT22;4268;52.506;13.462;2022-11-10T00:55:56;12.30;99.90
8463;DHT22;4268;52.506;13.462;2022-11-10T00:58:22;12.40;99.90
8463;DHT22;4268;52.506;13.462;2022-11-10T01:00:47;12.40;99.90
8463;DHT22;4268;52.506;13.462;2022-11-10T01:03:17;12.50;99.90
8463;DHT22;4268;52.506;13.462;2022-11-10T01:05:43;12.40;99.90
8463;DHT22;4268;52.506;13.462;2022-11-10T01:08:09;12.50;99.90
8463;DHT22;4268;52.506;13.462;2022-11-10T01:10:35;12.40;99.90
8463;DHT22;4268;52.506;13.462;2022-11-10T01:13:00;12.50;99.90
8463;DHT22;4268;52.506;13.462;2022-11-10T01:15:26;12.50;99.90
8463;DHT22;4268;52.506;13.462;2022-11-10T01:17:53;13.20;99.90
8463;DHT22;4268;52.506;13.462;2022-11-10T01:20:19;12.50;99.90
8463;DHT22;4268;52.506;13.462;2022-11-10T01:22:45;12.50;99.90
8463;DHT22;4268;52.506;13.462;2022-11-10T01:25:11;12.60;99.90
8463;DHT22;4268;52.506;13.462;2022-11-10T01:27:36;12.50;99.90
8463;DHT22;4268;52.506;13.462;2022-11-10T01:30:02;12.50;99.90
8463;DHT22;4268;52.506;13.462;2022-11-10T01:32:28;12.50;99.90
8463;DHT22;4268;52.506;13.462;2022-11-10T01:34:53;12.40;99.90
8463;DHT22;4268;52.506;13.462;2022-11-10T01:37:19;12.50;99.90
8463;DHT22;4268;52.506;13.462;2022-11-10T01:39:44;12.50;99.90
8463;DHT22;4268;52.506;13.462;2022-11-10T01:42:10;12.40;99.90
8463;DHT22;4268;52.506;13.462;2022-11-10T01:44:35;12.40;99.90
8463;DHT22;4268;52.506;13.462;2022-11-10T01:47:01;12.40;99.90
8463;DHT22;4268;52.506;13.462;2022-11-10T01:49:27;12.40;99.90
8463;DHT22;4268;52.506;13.462;2022-11-10T01:52:00;12.40;99.90
8463;DHT22;4268;52.506;13.462;2022-11-10T01:54:36;12.40;99.90
8463;DHT22;4268;52.506;13.462;2022-11-10T01:57:06;12.30;99.90
8463;DHT22;4268;52.506;13.462;2022-11-10T01:59:35;12.30;99.90
8463;DHT22;4268;52.506;13.462;2022-11-10T02:02:18;12.30;99.90
8463;DHT22;4268;52.506;13.462;2022-11-10T02:04:45;12.30;99.90
8463;DHT22;4268;52.506;13.462;2022-11-10T02:07:11;12.30;99.90
8463;DHT22;4268;52.506;13.462;2022-11-10T02:09:37;12.30;99.90
8463;DHT22;4268;52.506;13.462;2022-11-10T02:12:02;12.20;99.90
8463;DHT22;4268;52.506;13.462;2022-11-10T02:14:28;12.20;99.90
8463;DHT22;4268;52.506;13.462;2022-11-10T02:16:54;12.20;99.90
8463;DHT22;4268;52.506;13.462;2022-11-10T02:19:23;12.20;99.90
8463;DHT22;4268;52.506;13.462;2022-11-10T02:21:49;12.30;99.90
8463;DHT22;4268;52.506;13.462;2022-11-10T02:24:14;12.00;99.90
8463;DHT22;4268;52.506;13.462;2022-11-10T02:26:44;12.10;99.90
8463;DHT22;4268;52.506;13.462;2022-11-10T02:29:11;12.00;99.90
8463;DHT22;4268;52.506;13.462;2022-11-10T02:31:36;12.00;99.90
8463;DHT22;4268;52.506;13.462;2022-11-10T02:34:02;12.00;99.90
8463;DHT22;4268;52.506;13.462;2022-11-10T02:36:28;12.00;99.90
8463;DHT22;4268;52.506;13.462;2022-11-10T02:38:53;12.00;99.90
8463;DHT22;4268;52.506;13.462;2022-11-10T02:41:19;12.10;99.90
8463;DHT22;4268;52.506;13.462;2022-11-10T02:43:45;12.10;99.90
8463;DHT22;4268;52.506;13.462;2022-11-10T02:46:10;12.10;99.90
8463;DHT22;4268;52.506;13.462;2022-11-10T02:48:35;12.10;99.90
8463;DHT22;4268;52.506;13.462;2022-11-10T02:51:04;12.10;99.90
8463;DHT22;4268;52.506;13.462;2022-11-10T02:53:29;12.20;99.90
8463;DHT22;4268;52.506;13.462;2022-11-10T02:55:55;12.20;99.90
8463;DHT22;4268;52.506;13.462;2022-11-10T02:58:20;12.20;99.90
8463;DHT22;4268;52.506;13.462;2022-11-10T03:00:46;12.20;99.90
8463;DHT22;4268;52.506;13.462;2022-11-10T03:03:11;12.30;99.90
8463;DHT22;4268;52.506;13.462;2022-11-10T03:05:37;12.30;99.90
8463;DHT22;4268;52.506;13.462;2022-11-10T03:08:03;12.30;99.90
8463;DHT22;4268;52.506;13.462;2022-11-10T03:10:29;12.30;99.90
8463;DHT22;4268;52.506;13.462;2022-11-10T03:12:56;12.30;99.90
8463;DHT22;4268;52.506;13.462;2022-11-10T03:15:22;12.40;99.90
8463;DHT22;4268;52.506;13.462;2022-11-10T03:17:48;12.40;99.90
8463;DHT22;4268;52.506;13.462;2022-11-10T03:20:14;12.40;99.90
8463;DHT22;4268;52.506;13.462;2022-11-10T03:22:40;12.40;99.90
8463;DHT22;4268;52.506;13.462;2022-11-10T03:25:06;12.40;99.90
8463;DHT22;4268;52.506;13.462;2022-11-10T03:27:32;12.40;99.90
8463;DHT22;4268;52.506;13.462;2022-11-10T03:29:57;12.40;99.90
8463;DHT22;4268;52.506;13.462;2022-11-10T03:32:23;12.40;99.90
8463;DHT22;4268;52.506;13.462;2022-11-10T03:34:48;12.40;99.90
8463;DHT22;4268;52.506;13.462;2022-11-10T03:37:13;12.40;99.90
8463;DHT22;4268;52.506;13.462;2022-11-10T03:39:39;12.40;99.90
8463;DHT22;4268;52.506;13.462;2022-11-10T03:42:04;12.30;99.90
8463;DHT22;4268;52.506;13.462;2022-11-10T03:44:30;12.30;99.90
8463;DHT22;4268;52.506;13.462;2022-11-10T03:46:55;12.20;99.90
8463;DHT22;4268;52.506;13.462;2022-11-10T03:49:21;12.30;99.90
8463;DHT22;4268;52.506;13.462;2022-11-10T03:51:47;12.20;99.90
8463;DHT22;4268;52.506;13.462;2022-11-10T03:54:12;12.20;99.90
8463;DHT22;4268;52.506;13.462;2022-11-10T03:56:38;12.20;99.90
8463;DHT22;4268;52.506;13.462;2022-11-10T03:59:03;12.10;99.90
8463;DHT22;4268;52.506;13.462;2022-11-10T04:01:29;12.10;99.90
8463;DHT22;4268;52.506;13.462;2022-11-10T04:03:54;12.10;99.90
8463;DHT22;4268;52.506;13.462;2022-11-10T04:06:21;12.10;99.90
8463;DHT22;4268;52.506;13.462;2022-11-10T04:09:06;12.10;99.90
8463;DHT22;4268;52.506;13.462;2022-11-10T04:11:32;12.00;99.90
8463;DHT22;4268;52.506;13.462;2022-11-10T04:14:16;12.00;99.90
8463;DHT22;4268;52.506;13.462;2022-11-10T04:17:01;11.90;99.90
8463;DHT22;4268;52.506;13.462;2022-11-10T04:19:27;11.90;99.90
8463;DHT22;4268;52.506;13.462;2022-11-10T04:21:53;11.90;99.90
8463;DHT22;4268;52.506;13.462;2022-11-10T04:24:19;12.00;99.90
8463;DHT22;4268;52.506;13.462;2022-11-10T04:26:45;12.00;99.90
8463;DHT22;4268;52.506;13.462;2022-11-10T04:29:12;12.00;99.90
8463;DHT22;4268;52.506;13.462;2022-11-10T04:31:39;12.00;99.90
8463;DHT22;4268;52.506;13.462;2022-11-10T04:34:07;11.90;99.90
8463;DHT22;4268;52.506;13.462;2022-11-10T04:36:35;11.90;99.90
8463;DHT22;4268;52.506;13.462;2022-11-10T04:39:01;11.90;99.90
8463;DHT22;4268;52.506;13.462;2022-11-10T04:41:27;11.70;99.90
8463;DHT22;4268;52.506;13.462;2022-11-10T04:43:55;13.10;99.90
8463;DHT22;4268;52.506;13.462;2022-11-10T04:46:26;10.90;99.90
8463;DHT22;4268;52.506;13.462;2022-11-10T04:48:52;11.70;99.90
8463;DHT22;4268;52.506;13.462;2022-11-10T04:51:20;11.70;99.90
8463;DHT22;4268;52.506;13.462;2022-11-10T04:53:45;11.60;99.90
8463;DHT22;4268;52.506;13.462;2022-11-10T04:56:15;11.60;99.90
8463;DHT22;4268;52.506;13.462;2022-11-10T04:58:42;11.60;99.90
8463;DHT22;4268;52.506;13.462;2022-11-10T05:01:10;11.60;99.90
8463;DHT22;4268;52.506;13.462;2022-11-10T05:03:37;11.60;99.90
8463;DHT22;4268;52.506;13.462;2022-11-10T05:06:02;11.50;99.90
8463;DHT22;4268;52.506;13.462;2022-11-10T05:08:28;11.50;99.90
8463;DHT22;4268;52.506;13.462;2022-11-10T05:10:53;11.50;99.90
8463;DHT22;4268;52.506;13.462;2022-11-10T05:13:19;11.40;99.90
8463;DHT22;4268;52.506;13.462;2022-11-10T05:15:44;11.40;99.90
8463;DHT22;4268;52.506;13.462;2022-11-10T05:18:10;11.40;99.90
8463;DHT22;4268;52.506;13.462;2022-11-10T05:20:35;11.30;99.90
8463;DHT22;4268;52.506;13.462;2022-11-10T05:23:01;11.30;99.90
8463;DHT22;4268;52.506;13.462;2022-11-10T05:25:45;11.30;99.90
8463;DHT22;4268;52.506;13.462;2022-11-10T05:28:11;11.20;99.90
8463;DHT22;4268;52.506;13.462;2022-11-10T05:30:38;11.20;99.90
8463;DHT22;4268;52.506;13.462;2022-11-10T05:33:04;11.20;99.90
8463;DHT22;4268;52.506;13.462;2022-11-10T05:35:30;11.20;99.90
8463;DHT22;4268;52.506;13.462;2022-11-10T05:37:55;11.10;99.90
8463;DHT22;4268;52.506;13.462;2022-11-10T05:40:21;11.10;99.90
8463;DHT22;4268;52.506;13.462;2022-11-10T05:42:49;11.10;99.90
8463;DHT22;4268;52.506;13.462;2022-11-10T05:45:17;11.00;99.90
8463;DHT22;4268;52.506;13.462;2022-11-10T05:47:43;11.00;99.90
8463;DHT22;4268;52.506;13.462;2022-11-10T05:50:08;11.10;99.90
8463;DHT22;4268;52.506;13.462;2022-11-10T05:52:34;11.10;99.90
8463;DHT22;4268;52.506;13.462;2022-11-10T05:55:00;11.00;99.90
8463;DHT22;4268;52.506;13.462;2022-11-10T05:57:25;11.00;99.90
8463;DHT22;4268;52.506;13.462;2022-11-10T05:59:51;11.00;99.90
8463;DHT22;4268;52.506;13.462;2022-11-10T06:02:16;11.00;99.90
8463;DHT22;4268;52.506;13.462;2022-11-10T06:04:42;11.00;99.90
8463;DHT22;4268;52.506;13.462;2022-11-10T06:07:07;11.00;99.90
8463;DHT22;4268;52.506;13.462;2022-11-10T06:09:34;11.10;99.90
8463;DHT22;4268;52.506;13.462;2022-11-10T06:11:59;11.00;99.90
8463;DHT22;4268;52.506;13.462;2022-11-10T06:14:26;11.00;99.90
8463;DHT22;4268;52.506;13.462;2022-11-10T06:16:51;11.00;99.90
8463;DHT22;4268;52.506;13.462;2022-11-10T06:19:16;11.00;99.90
8463;DHT22;4268;52.506;13.462;2022-11-10T06:21:42;11.00;99.90
8463;DHT22;4268;52.506;13.462;2022-11-10T06:24:08;11.10;99.90
8463;DHT22;4268;52.506;13.462;2022-11-10T06:26:34;11.00;99.90
8463;DHT22;4268;52.506;13.462;2022-11-10T06:28:59;11.00;99.90
8463;DHT22;4268;52.506;13.462;2022-11-10T06:31:25;11.00;99.90
8463;DHT22;4268;52.506;13.462;2022-11-10T06:33:51;11.00;99.90
8463;DHT22;4268;52.506;13.462;2022-11-10T06:36:16;11.00;99.90
8463;DHT22;4268;52.506;13.462;2022-11-10T06:38:42;11.00;99.90
8463;DHT22;4268;52.506;13.462;2022-11-10T06:41:07;11.00;99.90
8463;DHT22;4268;52.506;13.462;2022-11-10T06:43:34;11.00;99.90
8463;DHT22;4268;52.506;13.462;2022-11-10T06:46:00;11.10;99.90
8463;DHT22;4268;52.506;13.462;2022-11-10T06:48:25;11.10;99.90
8463;DHT22;4268;52.506;13.462;2022-11-10T06:50:51;11.10;99.90
8463;DHT22;4268;52.506;13.462;2022-11-10T06:53:16;11.20;99.90
8463;DHT22;4268;52.506;13.462;2022-11-10T06:55:42;11.20;99.90
8463;DHT22;4268;52.506;13.462;2022-11-10T06:58:08;11.30;99.90
8463;DHT22;4268;52.506;13.462;2022-11-10T07:00:34;11.70;99.90
8463;DHT22;4268;52.506;13.462;2022-11-10T07:03:08;12.40;99.90
8463;DHT22;4268;52.506;13.462;2022-11-10T07:05:35;13.20;99.90
8463;DHT22;4268;52.506;13.462;2022-11-10T07:08:05;13.90;99.90
8463;DHT22;4268;52.506;13.462;2022-11-10T07:10:31;14.60;99.90
8463;DHT22;4268;52.506;13.462;2022-11-10T07:12:57;15.10;99.90
8463;DHT22;4268;52.506;13.462;2022-11-10T07:15:23;15.40;99.90
8463;DHT22;4268;52.506;13.462;2022-11-10T07:17:49;15.20;99.90
8463;DHT22;4268;52.506;13.462;2022-11-10T07:20:14;14.70;99.90
8463;DHT22;4268;52.506;13.462;2022-11-10T07:22:40;14.30;99.90
8463;DHT22;4268;52.506;13.462;2022-11-10T07:25:06;13.80;99.90
8463;DHT22;4268;52.506;13.462;2022-11-10T07:27:31;13.40;99.90
8463;DHT22;4268;52.506;13.462;2022-11-10T07:29:57;13.10;99.90
8463;DHT22;4268;52.506;13.462;2022-11-10T07:32:22;12.90;99.90
8463;DHT22;4268;52.506;13.462;2022-11-10T07:34:48;12.70;99.90
8463;DHT22;4268;52.506;13.462;2022-11-10T07:37:13;12.50;99.90
8463;DHT22;4268;52.506;13.462;2022-11-10T07:39:38;12.40;99.90
8463;DHT22;4268;52.506;13.462;2022-11-10T07:42:04;12.40;99.90
8463;DHT22;4268;52.506;13.462;2022-11-10T07:44:29;12.40;99.90
8463;DHT22;4268;52.506;13.462;2022-11-10T07:46:55;12.30;99.90
8463;DHT22;4268;52.506;13.462;2022-11-10T07:49:20;12.30;99.90
8463;DHT22;4268;52.506;13.462;2022-11-10T07:51:46;12.30;99.90
8463;DHT22;4268;52.506;13.462;2022-11-10T07:54:11;12.30;99.90
8463;DHT22;4268;52.506;13.462;2022-11-10T07:56:37;12.30;99.90
8463;DHT22;4268;52.506;13.462;2022-11-10T07:59:02;12.30;99.90
8463;DHT22;4268;52.506;13.462;2022-11-10T08:01:28;12.40;99.90
8463;DHT22;4268;52.506;13.462;2022-11-10T08:03:53;12.40;99.90
8463;DHT22;4268;52.506;13.462;2022-11-10T08:06:19;12.50;99.90
8463;DHT22;4268;52.506;13.462;2022-11-10T08:08:45;12.60;99.90
8463;DHT22;4268;52.506;13.462;2022-11-10T08:11:11;12.60;99.90
8463;DHT22;4268;52.506;13.462;2022-11-10T08:13:37;12.70;99.90
8463;DHT22;4268;52.506;13.462;2022-11-10T08:16:04;12.70;99.90
8463;DHT22;4268;52.506;13.462;2022-11-10T08:18:29;12.70;99.90
8463;DHT22;4268;52.506;13.462;2022-11-10T08:20:55;12.80;99.90
8463;DHT22;4268;52.506;13.462;2022-11-10T08:23:21;12.80;99.90
8463;DHT22;4268;52.506;13.462;2022-11-10T08:25:46;12.90;99.90
8463;DHT22;4268;52.506;13.462;2022-11-10T08:28:16;12.90;99.90
8463;DHT22;4268;52.506;13.462;2022-11-10T08:30:43;13.00;99.90
8463;DHT22;4268;52.506;13.462;2022-11-10T08:33:11;13.10;99.90
8463;DHT22;4268;52.506;13.462;2022-11-10T08:35:40;13.20;99.90
8463;DHT22;4268;52.506;13.462;2022-11-10T08:38:11;13.20;99.90
8463;DHT22;4268;52.506;13.462;2022-11-10T08:40:38;13.20;99.90
8463;DHT22;4268;52.506;13.462;2022-11-10T08:43:04;13.30;99.90
8463;DHT22;4268;52.506;13.462;2022-11-10T08:45:37;13.40;99.90
8463;DHT22;4268;52.506;13.462;2022-11-10T08:48:08;13.40;99.90
8463;DHT22;4268;52.506;13.462;2022-11-10T08:50:34;13.50;99.90
8463;DHT22;4268;52.506;13.462;2022-11-10T08:53:05;13.50;99.90
8463;DHT22;4268;52.506;13.462;2022-11-10T08:55:31;13.60;99.90
8463;DHT22;4268;52.506;13.462;2022-11-10T08:57:58;13.50;99.90
8463;DHT22;4268;52.506;13.462;2022-11-10T09:00:26;13.60;99.90
8463;DHT22;4268;52.506;13.462;2022-11-10T09:02:53;13.50;99.90
8463;DHT22;4268;52.506;13.462;2022-11-10T09:05:19;13.50;99.90
8463;DHT22;4268;52.506;13.462;2022-11-10T09:07:46;13.50;99.90
8463;DHT22;4268;52.506;13.462;2022-11-10T09:10:12;13.60;99.90
8463;DHT22;4268;52.506;13.462;2022-11-10T09:12:38;13.70;99.90
8463;DHT22;4268;52.506;13.462;2022-11-10T09:15:04;13.70;99.90
8463;DHT22;4268;52.506;13.462;2022-11-10T09:17:31;13.70;99.90
8463;DHT22;4268;52.506;13.462;2022-11-10T09:19:57;13.70;99.90
8463;DHT22;4268;52.506;13.462;2022-11-10T09:22:22;13.80;99.90
8463;DHT22;4268;52.506;13.462;2022-11-10T09:24:48;13.80;99.90
8463;DHT22;4268;52.506;13.462;2022-11-10T09:27:13;13.90;99.90
8463;DHT22;4268;52.506;13.462;2022-11-10T09:29:39;13.90;99.90
8463;DHT22;4268;52.506;13.462;2022-11-10T09:32:04;13.80;99.90
8463;DHT22;4268;52.506;13.462;2022-11-10T09:34:30;13.80;99.90
8463;DHT22;4268;52.506;13.462;2022-11-10T09:36:56;13.80;99.90
8463;DHT22;4268;52.506;13.462;2022-11-10T09:39:21;13.80;99.90
8463;DHT22;4268;52.506;13.462;2022-11-10T09:41:47;13.90;99.90
8463;DHT22;4268;52.506;13.462;2022-11-10T09:44:33;13.90;99.90
8463;DHT22;4268;52.506;13.462;2022-11-10T09:47:04;14.00;99.90
8463;DHT22;4268;52.506;13.462;2022-11-10T09:49:36;14.10;99.90
8463;DHT22;4268;52.506;13.462;2022-11-10T09:52:04;14.10;99.90
8463;DHT22;4268;52.506;13.462;2022-11-10T09:54:44;14.00;99.90
8463;DHT22;4268;52.506;13.462;2022-11-10T09:57:16;14.00;99.90
8463;DHT22;4268;52.506;13.462;2022-11-10T09:59:43;14.00;99.90
8463;DHT22;4268;52.506;13.462;2022-11-10T10:02:19;14.00;99.90
8463;DHT22;4268;52.506;13.462;2022-11-10T10:13:26;14.20;99.90
8463;DHT22;4268;52.506;13.462;2022-11-10T10:19:06;14.10;99.90
8463;DHT22;4268;52.506;13.462;2022-11-10T10:24:10;14.10;99.90
8463;DHT22;4268;52.506;13.462;2022-11-10T10:26:40;14.20;99.90
8463;DHT22;4268;52.506;13.462;2022-11-10T10:29:17;14.10;99.90
8463;DHT22;4268;52.506;13.462;2022-11-10T10:31:50;14.20;99.90
8463;DHT22;4268;52.506;13.462;2022-11-10T10:34:22;14.10;99.90
8463;DHT22;4268;52.506;13.462;2022-11-10T10:36:48;14.10;99.90
8463;DHT22;4268;52.506;13.462;2022-11-10T10:41:49;14.20;99.90
8463;DHT22;4268;52.506;13.462;2022-11-10T10:44:17;14.30;99.90
8463;DHT22;4268;52.506;13.462;2022-11-10T10:46:48;14.40;99.90
8463;DHT22;4268;52.506;13.462;2022-11-10T10:49:26;14.50;99.90
8463;DHT22;4268;52.506;13.462;2022-11-10T10:52:12;14.60;99.90
8463;DHT22;4268;52.506;13.462;2022-11-10T10:54:39;13.90;99.90
8463;DHT22;4268;52.506;13.462;2022-11-10T10:57:25;14.60;99.90
8463;DHT22;4268;52.506;13.462;2022-11-10T11:00:20;14.90;99.90
8463;DHT22;4268;52.506;13.462;2022-11-10T11:06:04;14.90;99.90
8463;DHT22;4268;52.506;13.462;2022-11-10T11:08:30;14.80;99.90
8463;DHT22;4268;52.506;13.462;2022-11-10T11:10:56;14.70;99.90
8463;DHT22;4268;52.506;13.462;2022-11-10T11:13:30;14.70;99.90
8463;DHT22;4268;52.506;13.462;2022-11-10T11:16:00;14.70;99.90
8463;DHT22;4268;52.506;13.462;2022-11-10T11:18:28;14.70;99.90
8463;DHT22;4268;52.506;13.462;2022-11-10T11:26:42;14.60;99.90
8463;DHT22;4268;52.506;13.462;2022-11-10T11:34:54;14.50;99.90
8463;DHT22;4268;52.506;13.462;2022-11-10T11:37:45;14.50;99.90
8463;DHT22;4268;52.506;13.462;2022-11-10T11:45:48;14.60;99.90
8463;DHT22;4268;52.506;13.462;2022-11-10T11:48:31;14.70;99.90
8463;DHT22;4268;52.506;13.462;2022-11-10T11:51:34;14.70;99.90
8463;DHT22;4268;52.506;13.462;2022-11-10T11:56:44;14.90;99.90
8463;DHT22;4268;52.506;13.462;2022-11-10T11:59:44;15.20;99.90
8463;DHT22;4268;52.506;13.462;2022-11-10T12:05:25;14.90;99.90
8463;DHT22;4268;52.506;13.462;2022-11-10T12:08:22;14.90;99.90
8463;DHT22;4268;52.506;13.462;2022-11-10T12:11:19;14.80;99.90
8463;DHT22;4268;52.506;13.462;2022-11-10T12:16:30;14.70;99.90
8463;DHT22;4268;52.506;13.462;2022-11-10T12:22:09;14.60;99.90
8463;DHT22;4268;52.506;13.462;2022-11-10T12:24:52;13.40;99.90
8463;DHT22;4268;52.506;13.462;2022-11-10T12:27:29;14.50;99.90
8463;DHT22;4268;52.506;13.462;2022-11-10T12:30:01;14.60;99.90
8463;DHT22;4268;52.506;13.462;2022-11-10T12:32:36;14.50;99.90
8463;DHT22;4268;52.506;13.462;2022-11-10T12:35:23;14.70;99.90
8463;DHT22;4268;52.506;13.462;2022-11-10T12:38:05;14.90;99.90
8463;DHT22;4268;52.506;13.462;2022-11-10T12:40:53;15.10;99.90
8463;DHT22;4268;52.506;13.462;2022-11-10T12:43:59;15.10;99.90
8463;DHT22;4268;52.506;13.462;2022-11-10T12:46:27;15.10;99.90
8463;DHT22;4268;52.506;13.462;2022-11-10T12:51:57;15.20;99.90
8463;DHT22;4268;52.506;13.462;2022-11-10T12:54:27;15.20;99.90
8463;DHT22;4268;52.506;13.462;2022-11-10T12:56:56;15.20;99.90
8463;DHT22;4268;52.506;13.462;2022-11-10T12:59:34;15.10;99.90
8463;DHT22;4268;52.506;13.462;2022-11-10T13:04:43;15.00;99.90
8463;DHT22;4268;52.506;13.462;2022-11-10T13:07:09;15.00;99.90
8463;DHT22;4268;52.506;13.462;2022-11-10T13:09:39;15.00;99.90
8463;DHT22;4268;52.506;13.462;2022-11-10T13:14:42;14.90;99.90
8463;DHT22;4268;52.506;13.462;2022-11-10T13:17:10;15.00;99.90
8463;DHT22;4268;52.506;13.462;2022-11-10T13:19:56;15.00;99.90
8463;DHT22;4268;52.506;13.462;2022-11-10T13:22:37;15.10;99.90
8463;DHT22;4268;52.506;13.462;2022-11-10T13:28:07;15.20;99.90
8463;DHT22;4268;52.506;13.462;2022-11-10T13:30:39;15.20;99.90
8463;DHT22;4268;52.506;13.462;2022-11-10T13:35:54;15.30;99.90
8463;DHT22;4268;52.506;13.462;2022-11-10T13:38:37;15.40;99.90
8463;DHT22;4268;52.506;13.462;2022-11-10T13:43:57;15.20;99.90
8463;DHT22;4268;52.506;13.462;2022-11-10T13:46:34;15.20;99.90
8463;DHT22;4268;52.506;13.462;2022-11-10T13:49:24;15.20;99.90
8463;DHT22;4268;52.506;13.462;2022-11-10T13:52:03;15.20;99.90
8463;DHT22;4268;52.506;13.462;2022-11-10T13:54:40;15.20;99.90
8463;DHT22;4268;52.506;13.462;2022-11-10T13:57:16;15.10;99.90
8463;DHT22;4268;52.506;13.462;2022-11-10T13:59:48;15.10;99.90
8463;DHT22;4268;52.506;13.462;2022-11-10T14:05:02;15.00;99.90
8463;DHT22;4268;52.506;13.462;2022-11-10T14:07:51;14.90;99.90
8463;DHT22;4268;52.506;13.462;2022-11-10T14:10:18;14.90;99.90
8463;DHT22;4268;52.506;13.462;2022-11-10T14:13:00;14.90;99.90
8463;DHT22;4268;52.506;13.462;2022-11-10T14:15:42;14.90;99.90
8463;DHT22;4268;52.506;13.462;2022-11-10T14:18:20;14.80;99.90
8463;DHT22;4268;52.506;13.462;2022-11-10T14:20:47;14.70;99.90
8463;DHT22;4268;52.506;13.462;2022-11-10T14:24:02;14.70;99.90
8463;DHT22;4268;52.506;13.462;2022-11-10T14:26:43;14.60;99.90
8463;DHT22;4268;52.506;13.462;2022-11-10T14:31:54;14.40;99.90
8463;DHT22;4268;52.506;13.462;2022-11-10T14:34:20;14.30;99.90
8463;DHT22;4268;52.506;13.462;2022-11-10T14:36:58;14.30;99.90
8463;DHT22;4268;52.506;13.462;2022-11-10T14:39:33;14.20;99.90
8463;DHT22;4268;52.506;13.462;2022-11-10T14:42:03;14.20;99.90
8463;DHT22;4268;52.506;13.462;2022-11-10T14:44:31;14.20;99.90
8463;DHT22;4268;52.506;13.462;2022-11-10T14:47:30;14.10;99.90
8463;DHT22;4268;52.506;13.462;2022-11-10T14:50:25;14.10;99.90
8463;DHT22;4268;52.506;13.462;2022-11-10T14:52:55;14.10;99.90
8463;DHT22;4268;52.506;13.462;2022-11-10T14:55:27;14.00;99.90
8463;DHT22;4268;52.506;13.462;2022-11-10T14:58:02;14.10;99.90
8463;DHT22;4268;52.506;13.462;2022-11-10T15:00:34;14.20;99.90
8463;DHT22;4268;52.506;13.462;2022-11-10T15:03:00;14.20;99.90
8463;DHT22;4268;52.506;13.462;2022-11-10T15:05:29;14.20;99.90
8463;DHT22;4268;52.506;13.462;2022-11-10T15:07:56;14.20;99.90
8463;DHT22;4268;52.506;13.462;2022-11-10T15:10:23;14.10;99.90
8463;DHT22;4268;52.506;13.462;2022-11-10T15:13:31;14.10;99.90
8463;DHT22;4268;52.506;13.462;2022-11-10T15:18:49;13.90;99.90
8463;DHT22;4268;52.506;13.462;2022-11-10T15:21:18;13.90;99.90
8463;DHT22;4268;52.506;13.462;2022-11-10T15:23:46;13.90;99.90
8463;DHT22;4268;52.506;13.462;2022-11-10T15:26:24;13.90;99.90
8463;DHT22;4268;52.506;13.462;2022-11-10T15:28:51;13.90;99.90
8463;DHT22;4268;52.506;13.462;2022-11-10T15:31:23;13.90;99.90
8463;DHT22;4268;52.506;13.462;2022-11-10T15:34:00;13.90;99.90
8463;DHT22;4268;52.506;13.462;2022-11-10T15:36:29;13.80;99.90
8463;DHT22;4268;52.506;13.462;2022-11-10T15:39:01;13.80;99.90
8463;DHT22;4268;52.506;13.462;2022-11-10T15:41:30;13.70;99.90
8463;DHT22;4268;52.506;13.462;2022-11-10T15:43:56;13.60;99.90
8463;DHT22;4268;52.506;13.462;2022-11-10T15:46:35;13.60;99.90
8463;DHT22;4268;52.506;13.462;2022-11-10T15:49:00;13.60;99.90
8463;DHT22;4268;52.506;13.462;2022-11-10T15:51:27;13.40;99.90
8463;DHT22;4268;52.506;13.462;2022-11-10T15:53:53;13.40;99.90
8463;DHT22;4268;52.506;13.462;2022-11-10T15:56:21;13.30;99.90
8463;DHT22;4268;52.506;13.462;2022-11-10T15:58:49;13.30;99.90
8463;DHT22;4268;52.506;13.462;2022-11-10T16:01:16;13.20;99.90
8463;DHT22;4268;52.506;13.462;2022-11-10T16:03:43;13.20;99.90
8463;DHT22;4268;52.506;13.462;2022-11-10T16:06:17;13.20;99.90
8463;DHT22;4268;52.506;13.462;2022-11-10T16:08:43;13.20;99.90
8463;DHT22;4268;52.506;13.462;2022-11-10T16:11:16;13.10;99.90
8463;DHT22;4268;52.506;13.462;2022-11-10T16:13:43;13.10;99.90
8463;DHT22;4268;52.506;13.462;2022-11-10T16:16:11;13.00;99.90
8463;DHT22;4268;52.506;13.462;2022-11-10T16:18:37;13.10;99.90
8463;DHT22;4268;52.506;13.462;2022-11-10T16:21:03;13.10;99.90
8463;DHT22;4268;52.506;13.462;2022-11-10T16:23:29;13.00;99.90
8463;DHT22;4268;52.506;13.462;2022-11-10T16:25:55;13.00;99.90
8463;DHT22;4268;52.506;13.462;2022-11-10T16:28:23;12.90;99.90
8463;DHT22;4268;52.506;13.462;2022-11-10T16:30:53;12.80;99.90
8463;DHT22;4268;52.506;13.462;2022-11-10T16:33:21;12.80;99.90
8463;DHT22;4268;52.506;13.462;2022-11-10T16:35:52;12.80;99.90
8463;DHT22;4268;52.506;13.462;2022-11-10T16:38:26;12.80;99.90
8463;DHT22;4268;52.506;13.462;2022-11-10T16:40:58;12.70;99.90
8463;DHT22;4268;52.506;13.462;2022-11-10T16:43:24;12.70;99.90
8463;DHT22;4268;52.506;13.462;2022-11-10T16:45:52;12.60;99.90
8463;DHT22;4268;52.506;13.462;2022-11-10T16:48:21;12.60;99.90
8463;DHT22;4268;52.506;13.462;2022-11-10T16:50:49;12.50;99.90
8463;DHT22;4268;52.506;13.462;2022-11-10T16:53:17;12.50;99.90
8463;DHT22;4268;52.506;13.462;2022-11-10T16:55:44;12.40;99.90
8463;DHT22;4268;52.506;13.462;2022-11-10T16:58:10;12.90;99.90
8463;DHT22;4268;52.506;13.462;2022-11-10T17:00:36;12.40;99.90
8463;DHT22;4268;52.506;13.462;2022-11-10T17:03:15;12.40;99.90
8463;DHT22;4268;52.506;13.462;2022-11-10T17:05:43;12.40;99.90
8463;DHT22;4268;52.506;13.462;2022-11-10T17:08:25;12.40;99.90
8463;DHT22;4268;52.506;13.462;2022-11-10T17:10:51;12.40;99.90
8463;DHT22;4268;52.506;13.462;2022-11-10T17:13:17;12.40;99.90